الصفحة الرئيسية
METAR-TAF:

METAR-TAF

مطار :

مطار جبل طارق

جبل طارق, جبل طارق

دائرة عرض: 36-09N, خط طول: 005-21W, ارتفاع: 5 متر

مراقبة الطقس الحالي

تاريخ ووقت الإصدار 1ساعة و 12 دقيقة قبل الساعة 05:50UTC
ريح 14 عقدة من الغرب/الشمال الغربي تتزايد حتى 25 عقدة
درجة الحرارة 12°درجة مئوية
الرطوبة 67%
ضغط 1009 hPa
الرؤية 10 كم أو أكثر
الغيوم لا تقل 1500 م ولا وجود لمزنة ركامية السحاب الأسود

METAR: LXGB 150550Z 29014G25KT CAVOK 12/06 Q1009 RMK BLU

زمن: 08:02 (07:02 UTC)

توقعات

تاريخ ووقت الإصدار 1ساعة و 37 دقيقة قبل الساعة 05:25UTC
التوقعات صالحة من15 الساعة 06 UTC إلى 15 الساعة 15 UTC
ريح 14 عقدة من الغرب/الشمال الغربي
الرؤية 10 كم أو أكثر
غيوم قليلة على ارتفاع 3000 قدم
أصبح
من 15 الساعة 06 UTC إلى 15 الساعة 09 UTC
ريح 17 عقدة من الغرب تتزايد حتى 27 عقدة

TAF: LXGB 150525Z 1506/1515 29014KT 9999 FEW030 BECMG 1506/1509 28017G27KT

أرصاد الطقس والتوقعات من أكثر من 4000 مطار (تقارير الطقس للمطار METAR والتنبؤ بالطقس بالمطارTAF).

المحطات المتاحة هي النقط الصفراء والحمراء على الخريطة.

حرك المؤشر فوق النقطة لمعرفة اسم المحطة.

ثم انقر لمعرفة أرصاد وتوقعات الطقس.

لتغيير الخارطة: اضغط على الأزرار الخضراء مع رمز الصليب الأسود للتكبير. على الزر الأخضر مع شرطة للتصغير، أو على الأسهم الخضراء للخرائط المجاورة.


METAR-TAF: